PWSweather.com
Personal Weather Stations
Station Observations
SHAHALMS1
Eftra, Falkenberg, HA

EftraFalkenberg, HA

Lat: 56.85, Lon: 12.65

Elevation: 140

Station Type:

http://hem.passagen.se/risarp101

High Low Average
Temperature 66.7°F19.3°C 57.4°F14.1°C 61.2°F16.2°C
Dew Point 61.5°F16.4°C 48.2°F9.0°C 54.4°F12.4°C
Winds 7.4 mph 11.9 kmh 1.5 mph 2.4 kmh 4.0 mph SSW6.4 kmh SSW
Wind Gusts 17.2 mph27.7 kmh 3.6 mph5.8 kmh 11.0 mph17.7 kmh
Humidity 90% 67% 79%
Pressure 30.07 in1018.3 mb 29.89 in1012.2 mb -
Precipitation 0.09 in2.3 mm - -
Hour Temp Dew Point Humidity Winds Wind Gusts Pressure Precip Precip Rate Daily Precip Total
12:00 AM 59.5°F15.3°C 55.3°F12.9°C 86% 5.0 mph SSE8.0 kmh SSE 14.0 mph22.5 kmh 30.07 in1018.3 mb 0.00 in0.0 mm 0.00 in0.0 mm 0.00 in0.0 mm
12:15 AM 59.7°F15.4°C 55.2°F12.9°C 85% 5.1 mph SSE8.2 kmh SSE 10.0 mph16.1 kmh 30.04 in1017.3 mb 0.00 in0.0 mm 0.00 in0.0 mm 0.00 in0.0 mm
12:30 AM 59.5°F15.3°C 55.0°F12.8°C 85% 4.0 mph SE6.4 kmh SE 9.3 mph15.0 kmh 30.04 in1017.3 mb 0.00 in0.0 mm 0.00 in0.0 mm 0.00 in0.0 mm
12:45 AM 59.2°F15.1°C 54.3°F12.4°C 84% 2.7 mph E4.3 kmh E 9.7 mph15.6 kmh 30.04 in1017.3 mb 0.00 in0.0 mm 0.00 in0.0 mm 0.00 in0.0 mm
01:00 AM 59.0°F15.0°C 54.2°F12.3°C 84% 3.1 mph E5.0 kmh E 8.9 mph14.3 kmh 30.04 in1017.3 mb 0.00 in0.0 mm 0.00 in0.0 mm 0.00 in0.0 mm
01:15 AM 58.6°F14.8°C 53.8°F12.1°C 84% 4.0 mph E6.4 kmh E 9.3 mph15.0 kmh 30.04 in1017.3 mb 0.00 in0.0 mm 0.00 in0.0 mm 0.00 in0.0 mm
01:30 AM 58.6°F14.8°C 53.8°F12.1°C 84% 4.2 mph ESE6.8 kmh ESE 10.0 mph16.1 kmh 30.01 in1016.3 mb 0.00 in0.0 mm 0.00 in0.0 mm 0.00 in0.0 mm
01:45 AM 58.3°F14.6°C 53.5°F11.9°C 84% 3.5 mph ESE5.6 kmh ESE 11.8 mph19.0 kmh 30.01 in1016.3 mb 0.00 in0.0 mm 0.00 in0.0 mm 0.00 in0.0 mm
02:00 AM 58.1°F14.5°C 53.3°F11.8°C 84% 3.2 mph SE5.1 kmh SE 9.7 mph15.6 kmh 30.01 in1016.3 mb 0.00 in0.0 mm 0.00 in0.0 mm 0.00 in0.0 mm
02:15 AM 58.5°F14.7°C 54.0°F12.2°C 85% 4.6 mph SE7.4 kmh SE 11.8 mph19.0 kmh 30.01 in1016.3 mb 0.00 in0.0 mm 0.00 in0.0 mm 0.00 in0.0 mm
02:30 AM 58.6°F14.8°C 54.1°F12.3°C 85% 6.1 mph SE9.8 kmh SE 15.0 mph24.1 kmh 29.98 in1015.2 mb 0.00 in0.0 mm 0.00 in0.0 mm 0.00 in0.0 mm
02:45 AM 58.8°F14.9°C 54.3°F12.4°C 85% 5.9 mph SE9.5 kmh SE 13.6 mph21.9 kmh 29.98 in1015.2 mb 0.00 in0.0 mm 0.00 in0.0 mm 0.00 in0.0 mm
03:00 AM 58.6°F14.8°C 54.1°F12.3°C 85% 4.8 mph ESE7.7 kmh ESE 10.4 mph16.7 kmh 29.98 in1015.2 mb 0.00 in0.0 mm 0.00 in0.0 mm 0.00 in0.0 mm
03:15 AM 58.5°F14.7°C 54.0°F12.2°C 85% 2.7 mph ESE4.3 kmh ESE 9.7 mph15.6 kmh 29.95 in1014.2 mb 0.00 in0.0 mm 0.00 in0.0 mm 0.00 in0.0 mm
03:30 AM 58.1°F14.5°C 53.6°F12.0°C 85% 4.6 mph E7.4 kmh E 10.4 mph16.7 kmh 29.95 in1014.2 mb 0.00 in0.0 mm 0.00 in0.0 mm 0.00 in0.0 mm
03:45 AM 57.7°F14.3°C 53.3°F11.8°C 85% 5.3 mph E8.5 kmh E 11.5 mph18.5 kmh 29.98 in1015.2 mb 0.00 in0.0 mm 0.00 in0.0 mm 0.00 in0.0 mm
04:00 AM 57.6°F14.2°C 53.1°F11.7°C 85% 5.9 mph E9.5 kmh E 10.4 mph16.7 kmh 29.98 in1015.2 mb 0.00 in0.0 mm 0.00 in0.0 mm 0.00 in0.0 mm
04:15 AM 57.4°F14.1°C 52.9°F11.6°C 85% 6.3 mph E10.1 kmh E 11.8 mph19.0 kmh 29.95 in1014.2 mb 0.00 in0.0 mm 0.00 in0.0 mm 0.00 in0.0 mm
04:30 AM 57.6°F14.2°C 53.4°F11.9°C 86% 5.4 mph ESE8.7 kmh ESE 13.6 mph21.9 kmh 29.95 in1014.2 mb 0.00 in0.0 mm 0.00 in0.0 mm 0.00 in0.0 mm
04:45 AM 57.7°F14.3°C 53.6°F12.0°C 86% 2.8 mph SSE4.5 kmh SSE 12.2 mph19.6 kmh 29.95 in1014.2 mb 0.00 in0.0 mm 0.00 in0.0 mm 0.00 in0.0 mm
05:00 AM 58.3°F14.6°C 53.8°F12.1°C 85% 3.7 mph SE6.0 kmh SE 9.7 mph15.6 kmh 29.95 in1014.2 mb 0.00 in0.0 mm 0.00 in0.0 mm 0.00 in0.0 mm
05:15 AM 58.5°F14.7°C 53.6°F12.0°C 84% 1.8 mph ESE2.9 kmh ESE 8.6 mph13.8 kmh 29.95 in1014.2 mb 0.00 in0.0 mm 0.00 in0.0 mm 0.00 in0.0 mm
05:30 AM 58.6°F14.8°C 53.5°F11.9°C 83% 4.3 mph ESE6.9 kmh ESE 10.0 mph16.1 kmh 29.92 in1013.2 mb 0.00 in0.0 mm 0.00 in0.0 mm 0.00 in0.0 mm
05:45 AM 59.0°F15.0°C 53.8°F12.1°C 83% 3.3 mph SE5.3 kmh SE 11.8 mph19.0 kmh 29.92 in1013.2 mb 0.00 in0.0 mm 0.00 in0.0 mm 0.00 in0.0 mm
06:00 AM 59.5°F15.3°C 54.0°F12.2°C 82% 5.7 mph SE9.2 kmh SE 12.9 mph20.8 kmh 29.92 in1013.2 mb 0.00 in0.0 mm 0.00 in0.0 mm 0.00 in0.0 mm
06:15 AM 59.9°F15.5°C 54.1°F12.3°C 81% 4.7 mph SE7.6 kmh SE 11.8 mph19.0 kmh 29.92 in1013.2 mb 0.00 in0.0 mm 0.00 in0.0 mm 0.00 in0.0 mm
06:30 AM 60.3°F15.7°C 54.1°F12.3°C 80% 5.3 mph SSE8.5 kmh SSE 13.6 mph21.9 kmh 29.89 in1012.2 mb 0.00 in0.0 mm 0.00 in0.0 mm 0.00 in0.0 mm
06:45 AM 60.1°F15.6°C 54.2°F12.3°C 81% 6.4 mph SE10.3 kmh SE 16.8 mph27.0 kmh 29.89 in1012.2 mb 0.00 in0.0 mm 0.00 in0.0 mm 0.00 in0.0 mm
07:00 AM 60.1°F15.6°C 54.9°F12.7°C 83% 6.5 mph S10.5 kmh S 14.0 mph22.5 kmh 29.92 in1013.2 mb 0.00 in0.0 mm 0.00 in0.0 mm 0.00 in0.0 mm
07:15 AM 59.9°F15.5°C 55.1°F12.8°C 84% 3.9 mph SSE6.3 kmh SSE 14.3 mph23.0 kmh 29.92 in1013.2 mb 0.05 in1.3 mm 0.20 in5.1 mm 0.05 in1.3 mm
07:30 AM 59.9°F15.5°C 55.4°F13.0°C 85% 4.0 mph SSE6.4 kmh SSE 10.4 mph16.7 kmh 29.92 in1013.2 mb 0.09 in2.3 mm 0.16 in4.1 mm 0.09 in2.3 mm
07:45 AM 60.1°F15.6°C 56.5°F13.6°C 88% 7.4 mph SSE11.9 kmh SSE 17.2 mph27.7 kmh 29.92 in1013.2 mb 0.09 in2.3 mm 0.00 in0.0 mm 0.09 in2.3 mm
08:00 AM 60.3°F15.7°C 56.7°F13.7°C 88% 4.3 mph SSE6.9 kmh SSE 10.4 mph16.7 kmh 29.92 in1013.2 mb 0.09 in2.3 mm 0.00 in0.0 mm 0.09 in2.3 mm
08:15 AM 60.4°F15.8°C 57.2°F14.0°C 89% 6.8 mph S10.9 kmh S 17.2 mph27.7 kmh 29.92 in1013.2 mb 0.05 in1.3 mm 0.00 in0.0 mm 0.09 in2.3 mm
08:30 AM 60.3°F15.7°C 57.0°F13.9°C 89% 3.1 mph S5.0 kmh S 9.7 mph15.6 kmh 29.92 in1013.2 mb 0.00 in0.0 mm 0.00 in0.0 mm 0.09 in2.3 mm
08:45 AM 60.3°F15.7°C 57.0°F13.9°C 89% 4.7 mph S7.6 kmh S 12.2 mph19.6 kmh 29.92 in1013.2 mb 0.00 in0.0 mm 0.00 in0.0 mm 0.09 in2.3 mm
09:00 AM 60.4°F15.8°C 57.5°F14.2°C 90% 5.2 mph S8.4 kmh S 10.0 mph16.1 kmh 29.92 in1013.2 mb 0.00 in0.0 mm 0.00 in0.0 mm 0.09 in2.3 mm
09:15 AM 61.0°F16.1°C 58.0°F14.4°C 90% 5.1 mph S8.2 kmh S 9.3 mph15.0 kmh 29.92 in1013.2 mb 0.00 in0.0 mm 0.00 in0.0 mm 0.09 in2.3 mm
09:30 AM 61.0°F16.1°C 58.0°F14.4°C 90% 5.3 mph S8.5 kmh S 14.7 mph23.7 kmh 29.92 in1013.2 mb 0.00 in0.0 mm 0.00 in0.0 mm 0.09 in2.3 mm
09:45 AM 61.3°F16.3°C 58.1°F14.5°C 89% 5.8 mph S9.3 kmh S 13.6 mph21.9 kmh 29.95 in1014.2 mb 0.00 in0.0 mm 0.00 in0.0 mm 0.09 in2.3 mm
10:00 AM 61.7°F16.5°C 58.4°F14.7°C 89% 5.3 mph S8.5 kmh S 11.5 mph18.5 kmh 29.95 in1014.2 mb 0.00 in0.0 mm 0.00 in0.0 mm 0.09 in2.3 mm
10:15 AM 62.6°F17.0°C 59.3°F15.2°C 89% 5.6 mph S9.0 kmh S 13.6 mph21.9 kmh 29.92 in1013.2 mb 0.00 in0.0 mm 0.00 in0.0 mm 0.09 in2.3 mm
10:30 AM 63.9°F17.7°C 60.6°F15.9°C 89% 6.6 mph WSW10.6 kmh WSW 13.6 mph21.9 kmh 29.92 in1013.2 mb 0.00 in0.0 mm 0.00 in0.0 mm 0.09 in2.3 mm
10:45 AM 64.9°F18.3°C 61.3°F16.3°C 88% 4.9 mph SSW7.9 kmh SSW 11.8 mph19.0 kmh 29.92 in1013.2 mb 0.00 in0.0 mm 0.00 in0.0 mm 0.09 in2.3 mm
11:00 AM 65.8°F18.8°C 61.5°F16.4°C 86% 6.0 mph WSW9.7 kmh WSW 12.2 mph19.6 kmh 29.89 in1012.2 mb 0.00 in0.0 mm 0.00 in0.0 mm 0.09 in2.3 mm
11:15 AM 66.2°F19.0°C 60.9°F16.1°C 83% 4.6 mph WSW7.4 kmh WSW 12.2 mph19.6 kmh 29.92 in1013.2 mb 0.00 in0.0 mm 0.00 in0.0 mm 0.09 in2.3 mm
11:30 AM 66.2°F19.0°C 60.5°F15.8°C 82% 3.9 mph W6.3 kmh W 10.0 mph16.1 kmh 29.92 in1013.2 mb 0.00 in0.0 mm 0.00 in0.0 mm 0.09 in2.3 mm
11:45 AM 66.2°F19.0°C 59.8°F15.4°C 80% 3.7 mph WSW6.0 kmh WSW 10.0 mph16.1 kmh 29.89 in1012.2 mb 0.00 in0.0 mm 0.00 in0.0 mm 0.09 in2.3 mm
12:00 PM 64.8°F18.2°C 57.7°F14.3°C 78% 5.1 mph W8.2 kmh W 11.5 mph18.5 kmh 29.89 in1012.2 mb 0.00 in0.0 mm 0.00 in0.0 mm 0.09 in2.3 mm
12:15 PM 64.6°F18.1°C 57.9°F14.4°C 79% 3.2 mph W5.1 kmh W 5.7 mph9.2 kmh 29.92 in1013.2 mb 0.00 in0.0 mm 0.00 in0.0 mm 0.09 in2.3 mm
12:30 PM 64.9°F18.3°C 57.9°F14.4°C 78% 4.5 mph W7.2 kmh W 11.5 mph18.5 kmh 29.92 in1013.2 mb 0.00 in0.0 mm 0.00 in0.0 mm 0.09 in2.3 mm
12:45 PM 65.7°F18.7°C 57.9°F14.4°C 76% 4.5 mph W7.2 kmh W 11.1 mph17.9 kmh 29.92 in1013.2 mb 0.00 in0.0 mm 0.00 in0.0 mm 0.09 in2.3 mm
01:00 PM 65.8°F18.8°C 57.7°F14.3°C 75% 4.4 mph WSW7.1 kmh WSW 10.7 mph17.2 kmh 29.92 in1013.2 mb 0.00 in0.0 mm 0.00 in0.0 mm 0.09 in2.3 mm
01:15 PM 65.8°F18.8°C 56.2°F13.4°C 71% 5.0 mph W8.0 kmh W 11.5 mph18.5 kmh 29.95 in1014.2 mb 0.00 in0.0 mm 0.00 in0.0 mm 0.09 in2.3 mm
01:30 PM 66.0°F18.9°C 56.3°F13.5°C 71% 4.1 mph W6.6 kmh W 9.7 mph15.6 kmh 29.95 in1014.2 mb 0.00 in0.0 mm 0.00 in0.0 mm 0.09 in2.3 mm
01:45 PM 65.8°F18.8°C 55.8°F13.2°C 70% 5.1 mph WSW8.2 kmh WSW 12.9 mph20.8 kmh 29.95 in1014.2 mb 0.00 in0.0 mm 0.00 in0.0 mm 0.09 in2.3 mm
02:00 PM 65.5°F18.6°C 55.4°F13.0°C 70% 3.9 mph W6.3 kmh W 10.0 mph16.1 kmh 29.95 in1014.2 mb 0.00 in0.0 mm 0.00 in0.0 mm 0.09 in2.3 mm
02:15 PM 66.0°F18.9°C 55.6°F13.1°C 69% 4.6 mph WNW7.4 kmh WNW 10.0 mph16.1 kmh 29.95 in1014.2 mb 0.00 in0.0 mm 0.00 in0.0 mm 0.09 in2.3 mm
02:30 PM 66.0°F18.9°C 55.6°F13.1°C 69% 5.0 mph WSW8.0 kmh WSW 10.0 mph16.1 kmh 29.98 in1015.2 mb 0.00 in0.0 mm 0.00 in0.0 mm 0.09 in2.3 mm
02:45 PM 66.6°F19.2°C 55.7°F13.2°C 68% 3.9 mph WSW6.3 kmh WSW 8.9 mph14.3 kmh 29.98 in1015.2 mb 0.00 in0.0 mm 0.00 in0.0 mm 0.09 in2.3 mm
03:00 PM 66.6°F19.2°C 55.7°F13.2°C 68% 4.3 mph WSW6.9 kmh WSW 7.2 mph11.6 kmh 29.98 in1015.2 mb 0.00 in0.0 mm 0.00 in0.0 mm 0.09 in2.3 mm
03:15 PM 66.7°F19.3°C 55.4°F13.0°C 67% 5.5 mph SW8.9 kmh SW 12.2 mph19.6 kmh 29.95 in1014.2 mb 0.00 in0.0 mm 0.00 in0.0 mm 0.09 in2.3 mm
03:30 PM 66.2°F19.0°C 54.9°F12.7°C 67% 5.1 mph W8.2 kmh W 13.6 mph21.9 kmh 29.98 in1015.2 mb 0.00 in0.0 mm 0.00 in0.0 mm 0.09 in2.3 mm
03:45 PM 65.8°F18.8°C 55.0°F12.8°C 68% 4.2 mph WNW6.8 kmh WNW 12.2 mph19.6 kmh 29.98 in1015.2 mb 0.00 in0.0 mm 0.00 in0.0 mm 0.09 in2.3 mm
04:00 PM 66.4°F19.1°C 55.1°F12.8°C 67% 3.7 mph WSW6.0 kmh WSW 7.9 mph12.7 kmh 29.98 in1015.2 mb 0.00 in0.0 mm 0.00 in0.0 mm 0.09 in2.3 mm
04:15 PM 65.8°F18.8°C 54.6°F12.6°C 67% 5.5 mph SW8.9 kmh SW 16.1 mph25.9 kmh 29.98 in1015.2 mb 0.00 in0.0 mm 0.00 in0.0 mm 0.09 in2.3 mm
04:30 PM 64.9°F18.3°C 53.7°F12.1°C 67% 5.9 mph W9.5 kmh W 14.3 mph23.0 kmh 29.98 in1015.2 mb 0.00 in0.0 mm 0.00 in0.0 mm 0.09 in2.3 mm
04:45 PM 64.0°F17.8°C 53.3°F11.8°C 68% 5.0 mph W8.0 kmh W 9.7 mph15.6 kmh 29.98 in1015.2 mb 0.00 in0.0 mm 0.00 in0.0 mm 0.09 in2.3 mm
05:00 PM 63.5°F17.5°C 52.7°F11.5°C 68% 5.6 mph WSW9.0 kmh WSW 10.0 mph16.1 kmh 29.98 in1015.2 mb 0.00 in0.0 mm 0.00 in0.0 mm 0.09 in2.3 mm
05:15 PM 62.8°F17.1°C 52.5°F11.4°C 69% 4.6 mph WSW7.4 kmh WSW 10.0 mph16.1 kmh 29.98 in1015.2 mb 0.00 in0.0 mm 0.00 in0.0 mm 0.09 in2.3 mm
05:30 PM 62.4°F16.9°C 52.9°F11.6°C 71% 4.0 mph WSW6.4 kmh WSW 12.5 mph20.1 kmh 29.95 in1014.2 mb 0.00 in0.0 mm 0.00 in0.0 mm 0.09 in2.3 mm
05:45 PM 62.1°F16.7°C 52.9°F11.6°C 72% 5.0 mph WSW8.0 kmh WSW 11.5 mph18.5 kmh 29.95 in1014.2 mb 0.00 in0.0 mm 0.00 in0.0 mm 0.09 in2.3 mm
06:00 PM 61.7°F16.5°C 53.0°F11.7°C 73% 5.6 mph WSW9.0 kmh WSW 12.5 mph20.1 kmh 29.95 in1014.2 mb 0.00 in0.0 mm 0.00 in0.0 mm 0.09 in2.3 mm
06:15 PM 61.5°F16.4°C 52.8°F11.6°C 73% 5.0 mph SSW8.0 kmh SSW 12.5 mph20.1 kmh 29.95 in1014.2 mb 0.00 in0.0 mm 0.00 in0.0 mm 0.09 in2.3 mm
06:30 PM 61.2°F16.2°C 52.8°F11.6°C 74% 4.2 mph SW6.8 kmh SW 9.7 mph15.6 kmh 29.95 in1014.2 mb 0.00 in0.0 mm 0.00 in0.0 mm 0.09 in2.3 mm
06:45 PM 60.8°F16.0°C 52.5°F11.4°C 74% 4.8 mph WSW7.7 kmh WSW 11.5 mph18.5 kmh 29.95 in1014.2 mb 0.00 in0.0 mm 0.00 in0.0 mm 0.09 in2.3 mm
07:00 PM 60.4°F15.8°C 52.5°F11.4°C 75% 3.0 mph WSW4.8 kmh WSW 7.5 mph12.1 kmh 29.95 in1014.2 mb 0.00 in0.0 mm 0.00 in0.0 mm 0.09 in2.3 mm
07:15 PM 60.1°F15.6°C 52.1°F11.2°C 75% 3.1 mph W5.0 kmh W 8.9 mph14.3 kmh 29.95 in1014.2 mb 0.00 in0.0 mm 0.00 in0.0 mm 0.09 in2.3 mm
07:30 PM 59.9°F15.5°C 52.0°F11.1°C 75% 2.6 mph W4.2 kmh W 6.4 mph10.3 kmh 29.95 in1014.2 mb 0.00 in0.0 mm 0.00 in0.0 mm 0.09 in2.3 mm
07:45 PM 59.5°F15.3°C 51.2°F10.7°C 74% 2.9 mph WSW4.7 kmh WSW 7.9 mph12.7 kmh 29.98 in1015.2 mb 0.00 in0.0 mm 0.00 in0.0 mm 0.09 in2.3 mm
08:00 PM 59.4°F15.2°C 51.1°F10.6°C 74% 3.6 mph WSW5.8 kmh WSW 12.2 mph19.6 kmh 29.98 in1015.2 mb 0.00 in0.0 mm 0.00 in0.0 mm 0.09 in2.3 mm
08:15 PM 59.4°F15.2°C 50.0°F10.0°C 71% 1.5 mph SW2.4 kmh SW 3.6 mph5.8 kmh 29.95 in1014.2 mb 0.00 in0.0 mm 0.00 in0.0 mm 0.09 in2.3 mm
08:30 PM 59.2°F15.1°C 50.2°F10.1°C 72% 2.1 mph S3.4 kmh S 6.1 mph9.8 kmh 29.95 in1014.2 mb 0.00 in0.0 mm 0.00 in0.0 mm 0.09 in2.3 mm
08:45 PM 59.5°F15.3°C 50.9°F10.5°C 73% 2.9 mph W4.7 kmh W 8.6 mph13.8 kmh 29.98 in1015.2 mb 0.00 in0.0 mm 0.00 in0.0 mm 0.09 in2.3 mm
09:00 PM 59.5°F15.3°C 50.9°F10.5°C 73% 3.8 mph W6.1 kmh W 8.6 mph13.8 kmh 29.98 in1015.2 mb 0.00 in0.0 mm 0.00 in0.0 mm 0.09 in2.3 mm
09:15 PM 59.4°F15.2°C 50.7°F10.4°C 73% 5.2 mph W8.4 kmh W 12.2 mph19.6 kmh 29.95 in1014.2 mb 0.00 in0.0 mm 0.00 in0.0 mm 0.09 in2.3 mm
09:30 PM 59.0°F15.0°C 50.0°F10.0°C 72% 4.3 mph WSW6.9 kmh WSW 10.0 mph16.1 kmh 29.95 in1014.2 mb 0.00 in0.0 mm 0.00 in0.0 mm 0.09 in2.3 mm
09:45 PM 58.5°F14.7°C 49.8°F9.9°C 73% 3.9 mph W6.3 kmh W 14.0 mph22.5 kmh 29.95 in1014.2 mb 0.00 in0.0 mm 0.00 in0.0 mm 0.09 in2.3 mm
10:00 PM 58.3°F14.6°C 49.7°F9.8°C 73% 3.3 mph WSW5.3 kmh WSW 8.9 mph14.3 kmh 29.95 in1014.2 mb 0.00 in0.0 mm 0.00 in0.0 mm 0.09 in2.3 mm
10:15 PM 57.9°F14.4°C 48.9°F9.4°C 72% 4.7 mph WSW7.6 kmh WSW 9.3 mph15.0 kmh 29.95 in1014.2 mb 0.00 in0.0 mm 0.00 in0.0 mm 0.09 in2.3 mm
10:30 PM 57.9°F14.4°C 48.2°F9.0°C 70% 4.8 mph WSW7.7 kmh WSW 9.7 mph15.6 kmh 29.95 in1014.2 mb 0.00 in0.0 mm 0.00 in0.0 mm 0.09 in2.3 mm
10:45 PM 58.1°F14.5°C 48.4°F9.1°C 70% 3.1 mph W5.0 kmh W 6.4 mph10.3 kmh 29.95 in1014.2 mb 0.00 in0.0 mm 0.00 in0.0 mm 0.09 in2.3 mm
11:00 PM 58.3°F14.6°C 48.9°F9.4°C 71% 4.3 mph NW6.9 kmh NW 9.7 mph15.6 kmh 29.95 in1014.2 mb 0.00 in0.0 mm 0.00 in0.0 mm 0.09 in2.3 mm
11:15 PM 58.5°F14.7°C 49.5°F9.7°C 72% 4.1 mph W6.6 kmh W 7.5 mph12.1 kmh 29.95 in1014.2 mb 0.00 in0.0 mm 0.00 in0.0 mm 0.09 in2.3 mm
11:30 PM 58.6°F14.8°C 49.6°F9.8°C 72% 3.4 mph W5.5 kmh W 6.8 mph10.9 kmh 29.95 in1014.2 mb 0.00 in0.0 mm 0.00 in0.0 mm 0.09 in2.3 mm
11:45 PM 58.6°F14.8°C 50.0°F10.0°C 73% 2.2 mph WSW3.5 kmh WSW 6.8 mph10.9 kmh 29.95 in1014.2 mb 0.00 in0.0 mm 0.00 in0.0 mm 0.09 in2.3 mm